Time;durP1;ratioP1;P1;durP2;ratioP2;P2;SDS_P1;SDS_P2;PMS_P1;PMS_P2;Temp;Humidity;BMP_temperature;BMP_pressure;BME280_temperature;BME280_humidity;BME280_pressure;Samples;Min_cycle;Max_cycle;Signal;HPM_P1;HPM_P2
2023/12/19 00:01:31;;;;;;;;;;;;;;;-144.99;100.00;52656.00;5129747;27;20026;-67
2023/12/19 00:03:59;;;;;;;;;;;;;;;-144.99;100.00;52633.59;5124016;27;20030;-68
2023/12/19 00:06:25;;;;;;;;;;;;;;;-144.99;100.00;52635.63;5123789;27;19932;-69
2023/12/19 00:08:52;;;;;;;;;;;;;;;-144.99;100.00;52631.53;5129156;27;19970;-69
2023/12/19 00:11:18;;;;;;;;;;;;;;;-144.99;100.00;52635.63;5115905;27;20022;-69
2023/12/19 00:13:45;;;;;;;;;;;;;;;-144.99;100.00;52670.28;5129056;27;20107;-70
2023/12/19 00:16:11;;;;;;;;;;;;;;;-144.99;100.00;52647.84;5127700;27;20337;-69
2023/12/19 00:18:38;;;;;;;;;;;;;;;-144.99;100.00;52611.16;4775062;27;10000152;-69
2023/12/19 00:21:06;;;;;;;;;;;;;;;-144.99;100.00;52623.38;5125638;27;19978;-69
2023/12/19 00:23:32;;;;;;;;;;;;;;;-144.99;100.00;52668.22;5128641;27;20006;-69
2023/12/19 00:25:59;;;;;;;;;;;;;;;-144.99;100.00;52656.00;5128513;27;20172;-69
2023/12/19 00:28:27;;;;;;;;;;;;;;;-144.99;100.00;52651.94;5127777;27;20027;-67
2023/12/19 00:30:53;;;;;;;;;;;;;;;-144.99;100.00;52676.38;5131219;27;19923;-66
2023/12/19 00:33:20;;;;;;;;;;;;;;;-144.99;100.00;52641.72;5129194;27;20035;-66
2023/12/19 00:35:46;;;;;;;;;;;;;;;-144.99;100.00;52590.78;5131088;27;20014;-68
2023/12/19 00:38:14;;;;;;;;;;;;;;;-144.99;100.00;52639.69;5124159;27;20176;-68
2023/12/19 00:40:41;;;;;;;;;;;;;;;-144.99;100.00;52664.16;5124543;27;19967;-66
2023/12/19 00:43:07;;;;;;;;;;;;;;;-144.99;100.00;52619.31;5130556;27;19963;-69
2023/12/19 00:45:34;;;;;;;;;;;;;;;-144.99;100.00;52668.22;5131812;27;19934;-67
2023/12/19 00:48:00;;;;;;;;;;;;;;;-144.99;100.00;52633.59;5120974;27;19928;-68
2023/12/19 00:50:27;;;;;;;;;;;;;;;-144.99;100.00;52647.84;5130081;27;19962;-67
2023/12/19 00:52:53;;;;;;;;;;;;;;;-144.99;100.00;52594.84;5130597;27;19927;-67
2023/12/19 00:55:20;;;;;;;;;;;;;;;-144.99;100.00;52635.63;5131481;27;20018;-67
2023/12/19 00:57:47;;;;;;;;;;;;;;;-144.99;100.00;52676.38;5130677;27;19930;-66
2023/12/19 01:00:14;;;;;;;;;;;;;;;-144.99;100.00;52688.63;5127488;27;20448;-66
2023/12/19 01:02:40;;;;;;;;;;;;;;;-144.99;100.00;52627.47;5131352;27;20025;-68
2023/12/19 01:05:07;;;;;;;;;;;;;;;-144.99;100.00;52692.69;5130707;27;19924;-67
2023/12/19 01:07:34;;;;;;;;;;;;;;;-144.99;100.00;52649.88;5126578;27;19924;-72
2023/12/19 01:10:00;;;;;;;;;;;;;;;-144.99;100.00;52651.94;5129029;27;19984;-71
2023/12/19 01:12:28;;;;;;;;;;;;;;;-144.99;100.00;52623.38;5129325;27;19976;-72
2023/12/19 01:14:54;;;;;;;;;;;;;;;-144.99;100.00;52651.94;5127066;27;20398;-71
2023/12/19 01:17:20;;;;;;;;;;;;;;;-144.99;100.00;52639.69;5129971;27;19965;-70
2023/12/19 01:19:47;;;;;;;;;;;;;;;-144.99;100.00;52662.13;5121340;27;20426;-69
2023/12/19 01:22:13;;;;;;;;;;;;;;;-144.99;100.00;52635.63;5124890;27;19927;-70
2023/12/19 01:24:40;;;;;;;;;;;;;;;-144.99;100.00;52607.09;5122401;27;19970;-70
2023/12/19 01:27:06;;;;;;;;;;;;;;;-144.99;100.00;52598.94;5120998;27;20034;-70
2023/12/19 01:29:34;;;;;;;;;;;;;;;-144.99;100.00;52674.34;5115241;27;20042;-70
2023/12/19 01:32:00;;;;;;;;;;;;;;;-144.99;100.00;52627.47;5136202;27;19960;-73
2023/12/19 01:34:27;;;;;;;;;;;;;;;-144.99;100.00;52639.69;5141963;27;20357;-70
2023/12/19 01:36:54;;;;;;;;;;;;;;;-144.99;100.00;52633.59;5128737;27;20015;-69
2023/12/19 01:39:21;;;;;;;;;;;;;;;-144.99;100.00;52639.69;5119038;27;19930;-70
2023/12/19 01:41:47;;;;;;;;;;;;;;;-144.99;100.00;52635.63;5128745;27;20441;-70
2023/12/19 01:44:18;;;;;;;;;;;;;;;-144.99;100.00;52641.72;5123326;27;20368;-70
2023/12/19 01:46:45;;;;;;;;;;;;;;;-144.99;100.00;52647.84;5125797;27;20109;-74
2023/12/19 01:49:12;;;;;;;;;;;;;;;-144.99;100.00;52615.25;5130255;27;19955;-67
2023/12/19 01:51:39;;;;;;;;;;;;;;;-144.99;100.00;52627.47;5130169;27;20385;-65
2023/12/19 01:54:06;;;;;;;;;;;;;;;-144.99;100.00;52656.00;5129986;27;20347;-67
2023/12/19 01:56:33;;;;;;;;;;;;;;;-144.99;100.00;52635.63;5122553;27;19939;-66
2023/12/19 01:59:00;;;;;;;;;;;;;;;-144.99;100.00;52635.63;5124393;27;19927;-66
2023/12/19 02:01:26;;;;;;;;;;;;;;;-144.99;100.00;52615.25;5130572;27;19985;-73
2023/12/19 02:03:54;;;;;;;;;;;;;;;-144.99;100.00;52631.53;5130685;27;19960;-74
2023/12/19 02:06:22;;;;;;;;;;;;;;;-144.99;100.00;52643.78;5126915;27;19977;-73
2023/12/19 02:08:51;;;;;;;;;;;;;;;-144.99;100.00;52631.53;5128540;27;19927;-70
2023/12/19 02:11:17;;;;;;;;;;;;;;;-144.99;100.00;52635.63;5123245;27;19923;-70
2023/12/19 02:13:44;;;;;;;;;;;;;;;-144.99;100.00;52629.50;5152612;27;19923;-72
2023/12/19 02:16:11;;;;;;;;;;;;;;;-144.99;100.00;52647.84;5130970;27;19930;-72
2023/12/19 02:18:37;;;;;;;;;;;;;;;-144.99;100.00;52596.88;5118939;27;20569;-72
2023/12/19 02:21:05;;;;;;;;;;;;;;;-144.99;100.00;52643.78;5129303;27;20470;-71
2023/12/19 02:23:33;;;;;;;;;;;;;;;-144.99;100.00;52635.63;5122250;27;20060;-71
2023/12/19 02:26:00;;;;;;;;;;;;;;;-144.99;100.00;52647.84;5127527;27;20058;-72
2023/12/19 02:28:26;;;;;;;;;;;;;;;-144.99;100.00;52647.84;5121485;27;19963;-72
2023/12/19 02:30:53;;;;;;;;;;;;;;;-144.99;100.00;52627.47;5120723;27;20358;-71
2023/12/19 02:33:19;;;;;;;;;;;;;;;-144.99;100.00;52613.19;5127299;27;19927;-72
2023/12/19 02:35:46;;;;;;;;;;;;;;;-144.99;100.00;52680.47;5129859;27;20417;-71
2023/12/19 02:38:14;;;;;;;;;;;;;;;-144.99;100.00;52611.16;5120600;27;21638;-70
2023/12/19 02:40:42;;;;;;;;;;;;;;;-144.99;100.00;52647.84;5130102;27;19959;-71
2023/12/19 02:43:08;;;;;;;;;;;;;;;-144.99;100.00;52643.78;5128206;27;20416;-71
2023/12/19 02:45:35;;;;;;;;;;;;;;;-144.99;100.00;52660.09;5125892;27;20476;-71
2023/12/19 02:48:01;;;;;;;;;;;;;;;-144.99;100.00;52619.31;5116019;27;20299;-70
2023/12/19 02:50:28;;;;;;;;;;;;;;;-144.99;100.00;52647.84;5115451;28;20010;-63
2023/12/19 02:52:56;;;;;;;;;;;;;;;-144.99;100.00;52668.22;5126711;27;19966;-65
2023/12/19 02:55:22;;;;;;;;;;;;;;;-144.99;100.00;52645.81;5123486;28;19924;-64
2023/12/19 02:57:50;;;;;;;;;;;;;;;-144.99;100.00;52611.16;5126637;28;20022;-63
2023/12/19 03:00:17;;;;;;;;;;;;;;;-144.99;100.00;52651.94;5129007;28;19932;-63
2023/12/19 03:02:43;;;;;;;;;;;;;;;-144.99;100.00;52631.53;5126602;28;19927;-64
2023/12/19 03:05:10;;;;;;;;;;;;;;;-144.99;100.00;52674.34;5120701;28;19971;-66
2023/12/19 03:07:36;;;;;;;;;;;;;;;-144.99;100.00;52676.38;5124542;27;19937;-65
2023/12/19 03:10:07;;;;;;;;;;;;;;;-144.99;100.00;52639.69;5118584;28;19923;-63
2023/12/19 03:12:34;;;;;;;;;;;;;;;-144.99;100.00;52643.78;5123593;28;19950;-64
2023/12/19 03:15:02;;;;;;;;;;;;;;;-144.99;100.00;52609.13;5126979;28;20014;-65
2023/12/19 03:17:28;;;;;;;;;;;;;;;-144.99;100.00;52627.47;5124729;27;20397;-65
2023/12/19 03:19:55;;;;;;;;;;;;;;;-144.99;100.00;52700.84;5120749;28;19957;-65
2023/12/19 03:22:21;;;;;;;;;;;;;;;-144.99;100.00;52623.38;5129139;27;19927;-65
2023/12/19 03:24:48;;;;;;;;;;;;;;;-144.99;100.00;52647.84;5127169;28;20019;-65
2023/12/19 03:27:14;;;;;;;;;;;;;;;-144.99;100.00;52623.38;5120240;28;19982;-68
2023/12/19 03:29:41;;;;;;;;;;;;;;;-144.99;100.00;52664.16;5123222;27;20338;-68
2023/12/19 03:32:09;;;;;;;;;;;;;;;-144.99;100.00;52619.31;5133489;27;19923;-68
2023/12/19 03:34:37;;;;;;;;;;;;;;;-144.99;100.00;52660.09;5149488;27;19984;-68
2023/12/19 03:37:03;;;;;;;;;;;;;;;-144.99;100.00;52639.69;5148051;27;19923;-68
2023/12/19 03:39:30;;;;;;;;;;;;;;;-144.99;100.00;52656.00;5126323;27;20346;-69
2023/12/19 03:41:56;;;;;;;;;;;;;;;-144.99;100.00;52688.63;5133128;27;19951;-68
2023/12/19 03:44:23;;;;;;;;;;;;;;;-144.99;100.00;52639.69;5132742;27;19931;-68
2023/12/19 03:46:49;;;;;;;;;;;;;;;-144.99;100.00;52676.38;5120552;27;19958;-69
2023/12/19 03:49:17;;;;;;;;;;;;;;;-144.99;100.00;52635.63;5123564;27;20299;-70
2023/12/19 03:51:43;;;;;;;;;;;;;;;-144.99;100.00;52639.69;5133206;27;19927;-69
2023/12/19 03:54:10;;;;;;;;;;;;;;;-144.99;100.00;52668.22;5124126;27;19936;-70
2023/12/19 03:56:37;;;;;;;;;;;;;;;-144.99;100.00;52668.22;5125516;27;19934;-74
2023/12/19 03:59:03;;;;;;;;;;;;;;;-144.99;100.00;52631.53;5129502;27;19923;-69
2023/12/19 04:01:30;;;;;;;;;;;;;;;-144.99;100.00;52653.97;5132799;27;19984;-69
2023/12/19 04:03:57;;;;;;;;;;;;;;;-144.99;100.00;52643.78;5128038;27;20421;-69
2023/12/19 04:06:25;;;;;;;;;;;;;;;-144.99;100.00;52664.16;5129740;27;20014;-68
2023/12/19 04:08:52;;;;;;;;;;;;;;;-144.99;100.00;52635.63;5121930;27;20599;-70
2023/12/19 04:11:19;;;;;;;;;;;;;;;-144.99;100.00;52668.22;5121017;27;20036;-65
2023/12/19 04:13:46;;;;;;;;;;;;;;;-144.99;100.00;52680.47;5130828;27;19924;-66
2023/12/19 04:16:12;;;;;;;;;;;;;;;-144.99;100.00;52637.66;5131177;27;19924;-65
2023/12/19 04:18:39;;;;;;;;;;;;;;;-144.99;100.00;52611.16;5130678;27;20022;-65
2023/12/19 04:21:07;;;;;;;;;;;;;;;-144.99;100.00;52649.88;5122523;27;19993;-66
2023/12/19 04:23:35;;;;;;;;;;;;;;;-144.99;100.00;52635.63;5126942;27;20380;-67
2023/12/19 04:26:01;;;;;;;;;;;;;;;-144.99;100.00;52627.47;5126215;27;20399;-65
2023/12/19 04:28:27;;;;;;;;;;;;;;;-144.99;100.00;52651.94;5123451;27;20349;-66
2023/12/19 04:30:54;;;;;;;;;;;;;;;-144.99;100.00;52631.53;5130301;27;19954;-64
2023/12/19 04:33:20;;;;;;;;;;;;;;;-144.99;100.00;52635.63;5126902;27;20449;-65
2023/12/19 04:35:47;;;;;;;;;;;;;;;-144.99;100.00;52658.03;5131977;27;19970;-65
2023/12/19 04:38:14;;;;;;;;;;;;;;;-144.99;100.00;52647.84;5120758;27;19931;-65
2023/12/19 04:40:42;;;;;;;;;;;;;;;-144.99;100.00;52633.59;5120375;27;19930;-64
2023/12/19 04:43:08;;;;;;;;;;;;;;;-144.99;100.00;52651.94;5119653;27;20472;-67
2023/12/19 04:45:34;;;;;;;;;;;;;;;-144.99;100.00;52641.72;5121248;27;20010;-71
2023/12/19 04:48:01;;;;;;;;;;;;;;;-144.99;100.00;52639.69;5127830;27;19973;-70
2023/12/19 04:50:27;;;;;;;;;;;;;;;-144.99;100.00;52635.63;5122079;27;19978;-72
2023/12/19 04:52:54;;;;;;;;;;;;;;;-144.99;100.00;52627.47;5128012;27;20334;-69
2023/12/19 04:55:20;;;;;;;;;;;;;;;-144.99;100.00;52651.94;5127236;27;19950;-72
2023/12/19 04:57:48;;;;;;;;;;;;;;;-144.99;100.00;52643.78;5143822;27;19948;-72
2023/12/19 05:00:15;;;;;;;;;;;;;;;-144.99;100.00;52649.88;5132993;27;19930;-71
2023/12/19 05:02:42;;;;;;;;;;;;;;;-144.99;100.00;52643.78;5117615;27;19962;-71
2023/12/19 05:05:09;;;;;;;;;;;;;;;-144.99;100.00;52635.63;5129244;27;19930;-67
2023/12/19 05:07:35;;;;;;;;;;;;;;;-144.99;100.00;52603.00;5130795;27;19954;-67
2023/12/19 05:10:02;;;;;;;;;;;;;;;-144.99;100.00;52647.84;5130943;27;19955;-69
2023/12/19 05:12:28;;;;;;;;;;;;;;;-144.99;100.00;52627.47;5119839;27;20314;-67
2023/12/19 05:14:56;;;;;;;;;;;;;;;-144.99;100.00;52615.25;5127263;27;19923;-69
2023/12/19 05:17:22;;;;;;;;;;;;;;;-144.99;100.00;52641.72;5126717;27;20350;-66
2023/12/19 05:19:49;;;;;;;;;;;;;;;-144.99;100.00;52611.16;5130800;27;19967;-66
2023/12/19 05:22:14;;;;;;;;;;;;;;;-144.99;100.00;52627.47;5119918;27;19970;-68
2023/12/19 05:24:42;;;;;;;;;;;;;;;-144.99;100.00;52680.47;5131336;27;20400;-69
2023/12/19 05:27:08;;;;;;;;;;;;;;;-144.99;100.00;52603.00;5127135;27;20046;-70
2023/12/19 05:29:35;;;;;;;;;;;;;;;-144.99;100.00;52637.66;5131491;27;20149;-70
2023/12/19 05:32:02;;;;;;;;;;;;;;;-144.99;100.00;52649.88;5130386;27;20369;-70
2023/12/19 05:34:29;;;;;;;;;;;;;;;-144.99;100.00;52653.97;5131415;27;19970;-70
2023/12/19 05:36:55;;;;;;;;;;;;;;;-144.99;100.00;52647.84;5121663;27;20422;-70
2023/12/19 05:39:22;;;;;;;;;;;;;;;-144.99;100.00;52656.00;5128238;27;19958;-71
2023/12/19 05:41:48;;;;;;;;;;;;;;;-144.99;100.00;52631.53;5117740;27;20377;-69
2023/12/19 05:44:16;;;;;;;;;;;;;;;-144.99;100.00;52647.84;5123751;27;20476;-69
2023/12/19 05:46:42;;;;;;;;;;;;;;;-144.99;100.00;52676.38;5129775;27;20361;-70
2023/12/19 05:49:10;;;;;;;;;;;;;;;-144.99;100.00;52647.84;5128588;27;20361;-69
2023/12/19 05:51:38;;;;;;;;;;;;;;;-144.99;100.00;52639.69;5127153;27;19962;-69
2023/12/19 05:54:05;;;;;;;;;;;;;;;-144.99;100.00;52684.53;5122666;27;20374;-70
2023/12/19 05:56:31;;;;;;;;;;;;;;;-144.99;100.00;52619.31;5118743;27;19960;-70
2023/12/19 05:58:58;;;;;;;;;;;;;;;-144.99;100.00;52631.53;5125373;27;20046;-68
2023/12/19 06:01:24;;;;;;;;;;;;;;;-144.99;100.00;52639.69;5125849;27;20390;-69
2023/12/19 06:03:51;;;;;;;;;;;;;;;-144.99;100.00;52651.94;5128276;27;19936;-69
2023/12/19 06:06:19;;;;;;;;;;;;;;;-144.99;100.00;52623.38;5125643;27;20355;-69
2023/12/19 06:08:45;;;;;;;;;;;;;;;-144.99;100.00;52645.81;5126538;27;19957;-70
2023/12/19 06:11:12;;;;;;;;;;;;;;;-144.99;100.00;52643.78;5129837;27;19980;-68
2023/12/19 06:13:38;;;;;;;;;;;;;;;-144.99;100.00;52635.63;5125460;27;20026;-65
2023/12/19 06:16:05;;;;;;;;;;;;;;;-144.99;100.00;52639.69;5129957;27;20493;-77
2023/12/19 06:18:32;;;;;;;;;;;;;;;-144.99;100.00;52647.84;5127014;27;20481;-67
2023/12/19 06:20:59;;;;;;;;;;;;;;;-144.99;100.00;52627.47;5128317;27;19971;-66
2023/12/19 06:23:28;;;;;;;;;;;;;;;-144.99;100.00;52641.72;5122345;27;19924;-70
2023/12/19 06:25:54;;;;;;;;;;;;;;;-144.99;100.00;52625.44;5128071;27;20022;-66
2023/12/19 06:28:22;;;;;;;;;;;;;;;-144.99;100.00;52639.69;5129607;27;19924;-69
2023/12/19 06:30:49;;;;;;;;;;;;;;;-144.99;100.00;52643.78;5130355;27;20381;-68
2023/12/19 06:33:16;;;;;;;;;;;;;;;-144.99;100.00;52678.44;5127159;27;20452;-68
2023/12/19 06:35:43;;;;;;;;;;;;;;;-144.99;100.00;52664.16;4421071;27;10000747;-68
2023/12/19 06:38:09;;;;;;;;;;;;;;;-144.99;100.00;52649.88;5120686;27;20050;-69
2023/12/19 06:40:37;;;;;;;;;;;;;;;-144.99;100.00;52649.88;5121903;27;20008;-68
2023/12/19 06:43:05;;;;;;;;;;;;;;;-144.99;100.00;52639.69;5122410;27;19930;-68
2023/12/19 06:45:33;;;;;;;;;;;;;;;-144.99;100.00;52645.81;5124317;27;19927;-68
2023/12/19 06:48:01;;;;;;;;;;;;;;;-144.99;100.00;52635.63;5118845;27;19963;-69
2023/12/19 06:50:27;;;;;;;;;;;;;;;-144.99;100.00;52664.16;5123974;27;19932;-68
2023/12/19 06:52:54;;;;;;;;;;;;;;;-144.99;100.00;52682.50;5123954;27;20027;-67
2023/12/19 06:55:21;;;;;;;;;;;;;;;-144.99;100.00;52651.94;5122808;27;19957;-68
2023/12/19 06:57:48;;;;;;;;;;;;;;;-144.99;100.00;52635.63;5123970;27;19927;-67
2023/12/19 07:00:16;;;;;;;;;;;;;;;-144.99;100.00;52668.22;5124888;27;20389;-68
2023/12/19 07:02:43;;;;;;;;;;;;;;;-144.99;100.00;52647.84;5128564;28;20226;-68
2023/12/19 07:05:09;;;;;;;;;;;;;;;-144.99;100.00;52653.97;5129831;27;20498;-68
2023/12/19 07:07:36;;;;;;;;;;;;;;;-144.99;100.00;52651.94;5124685;27;19927;-68
2023/12/19 07:10:04;;;;;;;;;;;;;;;-144.99;100.00;52668.22;5128787;27;20414;-68
2023/12/19 07:12:31;;;;;;;;;;;;;;;-144.99;100.00;52660.09;5127972;27;19927;-69
2023/12/19 07:14:59;;;;;;;;;;;;;;;-144.99;100.00;52651.94;5127543;27;20018;-68
2023/12/19 07:17:25;;;;;;;;;;;;;;;-144.99;100.00;52696.78;5125644;27;19930;-68
2023/12/19 07:19:52;;;;;;;;;;;;;;;-144.99;100.00;52635.63;5124855;27;19931;-68
2023/12/19 07:22:18;;;;;;;;;;;;;;;-144.99;100.00;52658.03;5121072;27;19970;-68
2023/12/19 07:24:44;;;;;;;;;;;;;;;-144.99;100.00;52643.78;5130019;27;20038;-67
2023/12/19 07:27:11;;;;;;;;;;;;;;;-144.99;100.00;52633.59;5127707;27;20015;-67
2023/12/19 07:29:38;;;;;;;;;;;;;;;-144.99;100.00;52668.22;5124945;27;19957;-68
2023/12/19 07:32:06;;;;;;;;;;;;;;;-144.99;100.00;52656.00;5129016;27;20381;-66
2023/12/19 07:34:33;;;;;;;;;;;;;;;-144.99;100.00;52631.53;5127420;27;20022;-68
2023/12/19 07:36:59;;;;;;;;;;;;;;;-144.99;100.00;52656.00;5130012;27;20389;-68
2023/12/19 07:39:26;;;;;;;;;;;;;;;-144.99;100.00;52631.53;5138115;27;19935;-67
2023/12/19 07:41:52;;;;;;;;;;;;;;;-144.99;100.00;52639.69;5145420;27;19949;-68
2023/12/19 07:44:19;;;;;;;;;;;;;;;-144.99;100.00;52656.00;5131627;27;19954;-67
2023/12/19 07:46:46;;;;;;;;;;;;;;;-144.99;100.00;52598.94;5130048;27;19927;-68
2023/12/19 07:49:14;;;;;;;;;;;;;;;-144.99;100.00;52647.84;5126535;27;20035;-68
2023/12/19 07:51:39;;;;;;;;;;;;;;;-144.99;100.00;52668.22;5119583;27;19974;-68
2023/12/19 07:54:06;;;;;;;;;;;;;;;-144.99;100.00;52607.09;5126024;27;19973;-68
2023/12/19 07:56:33;;;;;;;;;;;;;;;-144.99;100.00;52664.16;5124884;27;20023;-68
2023/12/19 07:59:06;;;;;;;;;;;;;;;-144.99;100.00;52676.38;5005268;27;10000202;-68
2023/12/19 08:01:33;;;;;;;;;;;;;;;-144.99;100.00;52639.69;5128600;27;20410;-67
2023/12/19 08:03:59;;;;;;;;;;;;;;;-144.99;100.00;52635.63;5125217;27;20095;-67
2023/12/19 08:06:27;;;;;;;;;;;;;;;-144.99;100.00;52651.94;5129633;27;20022;-68
2023/12/19 08:08:54;;;;;;;;;;;;;;;-144.99;100.00;52668.22;5125139;27;20329;-68
2023/12/19 08:11:20;;;;;;;;;;;;;;;-144.99;100.00;52676.38;5130013;27;19967;-68
2023/12/19 08:13:48;;;;;;;;;;;;;;;-144.99;100.00;52639.69;5117577;27;19976;-67
2023/12/19 08:16:15;;;;;;;;;;;;;;;-144.99;100.00;52627.47;5117826;27;20023;-67
2023/12/19 08:18:41;;;;;;;;;;;;;;;-144.99;100.00;52684.53;5124418;27;19938;-67
2023/12/19 08:21:08;;;;;;;;;;;;;;;-144.99;100.00;52676.38;5125353;27;19935;-68
2023/12/19 08:23:36;;;;;;;;;;;;;;;-144.99;100.00;52651.94;5127251;27;19928;-66
2023/12/19 08:26:02;;;;;;;;;;;;;;;-144.99;100.00;52664.16;5127109;27;19927;-66
2023/12/19 08:28:29;;;;;;;;;;;;;;;-144.99;100.00;52619.31;5129209;27;20058;-68
2023/12/19 08:30:55;;;;;;;;;;;;;;;-144.99;100.00;52627.47;5129337;27;20258;-68
2023/12/19 08:33:22;;;;;;;;;;;;;;;-144.99;100.00;52660.09;5128375;27;20342;-68
2023/12/19 08:35:48;;;;;;;;;;;;;;;-144.99;100.00;52660.09;5124566;27;19927;-67
2023/12/19 08:38:15;;;;;;;;;;;;;;;-144.99;100.00;52674.34;5127049;27;20015;-67
2023/12/19 08:40:42;;;;;;;;;;;;;;;-144.99;100.00;52633.59;5128841;27;19980;-68
2023/12/19 08:43:09;;;;;;;;;;;;;;;-144.99;100.00;52686.59;5123656;27;19931;-68
2023/12/19 08:45:35;;;;;;;;;;;;;;;-144.99;100.00;52635.63;5124419;27;20030;-68
2023/12/19 08:48:03;;;;;;;;;;;;;;;-144.99;100.00;52656.00;5117436;27;20399;-68
2023/12/19 08:50:29;;;;;;;;;;;;;;;-144.99;100.00;52668.22;5128615;27;19931;-68
2023/12/19 08:52:56;;;;;;;;;;;;;;;-144.99;100.00;52656.00;5127063;27;19966;-67
2023/12/19 08:55:23;;;;;;;;;;;;;;;-144.99;100.00;52643.78;5128490;27;20378;-67
2023/12/19 08:57:51;;;;;;;;;;;;;;;-144.99;100.00;52619.31;5123383;27;19923;-68
2023/12/19 09:00:19;;;;;;;;;;;;;;;-144.99;100.00;52651.94;5134870;27;19985;-67
2023/12/19 09:02:46;;;;;;;;;;;;;;;-144.99;100.00;52651.94;5129927;27;19951;-68
2023/12/19 09:05:13;;;;;;;;;;;;;;;-144.99;100.00;52676.38;5128534;27;19928;-68
2023/12/19 09:07:40;;;;;;;;;;;;;;;-144.99;100.00;52647.84;5122778;27;20644;-66
2023/12/19 09:10:07;;;;;;;;;;;;;;;-144.99;100.00;52611.16;5126961;27;19935;-68
2023/12/19 09:12:34;;;;;;;;;;;;;;;-144.99;100.00;52623.38;5127197;27;19959;-68
2023/12/19 09:15:02;;;;;;;;;;;;;;;-144.99;100.00;52656.00;5123387;27;19927;-68
2023/12/19 09:17:29;;;;;;;;;;;;;;;-144.99;100.00;52619.31;5123280;27;19929;-68
2023/12/19 09:19:56;;;;;;;;;;;;;;;-144.99;100.00;52639.69;5120195;27;19927;-68
2023/12/19 09:22:22;;;;;;;;;;;;;;;-144.99;100.00;52645.81;5122466;27;19927;-67
2023/12/19 09:24:49;;;;;;;;;;;;;;;-144.99;100.00;52651.94;5120244;27;20089;-68
2023/12/19 09:27:16;;;;;;;;;;;;;;;-144.99;100.00;52672.31;5126385;27;19932;-68
2023/12/19 09:29:42;;;;;;;;;;;;;;;-144.99;100.00;52684.53;5126419;27;19927;-68
2023/12/19 09:32:12;;;;;;;;;;;;;;;-144.99;100.00;52680.47;5127506;27;19932;-68
2023/12/19 09:34:38;;;;;;;;;;;;;;;-144.99;100.00;52662.13;5127515;27;20434;-68
2023/12/19 09:37:06;;;;;;;;;;;;;;;-144.99;100.00;52692.69;5120860;27;19927;-68
2023/12/19 09:39:32;;;;;;;;;;;;;;;-144.99;100.00;52668.22;5125079;27;19991;-68
2023/12/19 09:41:59;;;;;;;;;;;;;;;-144.99;100.00;52647.84;5130943;27;19931;-68
2023/12/19 09:44:27;;;;;;;;;;;;;;;-144.99;100.00;52643.78;5120621;27;19967;-68
2023/12/19 09:46:54;;;;;;;;;;;;;;;-144.99;100.00;52668.22;5125150;27;19931;-69
2023/12/19 09:49:22;;;;;;;;;;;;;;;-144.99;100.00;52619.31;5126696;27;20415;-68
2023/12/19 09:51:51;;;;;;;;;;;;;;;-144.99;100.00;52647.84;5124237;27;20594;-69
2023/12/19 09:54:19;;;;;;;;;;;;;;;-144.99;100.00;52656.00;5125955;27;19951;-68
2023/12/19 09:56:46;;;;;;;;;;;;;;;-144.99;100.00;52676.38;5128227;27;19924;-68
2023/12/19 09:59:13;;;;;;;;;;;;;;;-144.99;100.00;52656.00;5124549;27;19928;-68
2023/12/19 10:01:40;;;;;;;;;;;;;;;-144.99;100.00;52651.94;5127094;27;20413;-67
2023/12/19 10:04:13;;;;;;;;;;;;;;;-144.99;100.00;52680.47;5125921;27;20169;-68
2023/12/19 10:06:41;;;;;;;;;;;;;;;-144.99;100.00;52627.47;5126278;27;19939;-68
2023/12/19 10:09:08;;;;;;;;;;;;;;;-144.99;100.00;52625.44;5114817;27;20156;-67
2023/12/19 10:11:34;;;;;;;;;;;;;;;-144.99;100.00;52631.53;5124981;27;20055;-67
2023/12/19 10:14:09;;;;;;;;;;;;;;;-144.99;100.00;52623.38;5123445;27;19935;-68
2023/12/19 10:16:38;;;;;;;;;;;;;;;-144.99;100.00;52647.84;5122073;27;19923;-67
2023/12/19 10:19:05;;;;;;;;;;;;;;;-144.99;100.00;52660.09;5128398;27;19923;-67
2023/12/19 10:21:32;;;;;;;;;;;;;;;-144.99;100.00;52660.09;5131494;27;19992;-67
2023/12/19 10:24:11;;;;;;;;;;;;;;;-144.99;100.00;52635.63;5127217;27;20283;-68
2023/12/19 10:26:37;;;;;;;;;;;;;;;-144.99;100.00;52658.03;5117583;27;19935;-67
2023/12/19 10:29:04;;;;;;;;;;;;;;;-144.99;100.00;52635.63;5127113;27;20050;-68
2023/12/19 10:31:31;;;;;;;;;;;;;;;-144.99;100.00;52623.38;5127293;27;19927;-68
2023/12/19 10:33:57;;;;;;;;;;;;;;;-144.99;100.00;52639.69;5120629;27;20314;-69
2023/12/19 10:36:24;;;;;;;;;;;;;;;-144.99;100.00;52639.69;5122111;27;19927;-68
2023/12/19 10:38:51;;;;;;;;;;;;;;;-144.99;100.00;52676.38;5124526;27;19930;-70
2023/12/19 10:41:20;;;;;;;;;;;;;;;-144.99;100.00;52651.94;5121436;27;19978;-66
2023/12/19 10:43:49;;;;;;;;;;;;;;;-144.99;100.00;52619.31;5118857;27;19928;-68
2023/12/19 10:46:17;;;;;;;;;;;;;;;-144.99;100.00;52627.47;5126061;27;19924;-68
2023/12/19 10:48:44;;;;;;;;;;;;;;;-144.99;100.00;52619.31;5124944;27;19934;-69
2023/12/19 10:51:11;;;;;;;;;;;;;;;-144.99;100.00;52635.63;5122141;27;19977;-69
2023/12/19 10:53:38;;;;;;;;;;;;;;;-144.99;100.00;52647.84;5125414;27;20284;-68
2023/12/19 10:56:08;;;;;;;;;;;;;;;-144.99;100.00;52664.16;5119927;27;19923;-68
2023/12/19 10:58:40;;;;;;;;;;;;;;;-144.99;100.00;52643.78;5120418;27;19935;-67
2023/12/19 11:01:09;;;;;;;;;;;;;;;-144.99;100.00;52668.22;5141841;27;19935;-67
2023/12/19 11:03:38;;;;;;;;;;;;;;;-144.99;100.00;52615.25;5137798;27;19927;-68
2023/12/19 11:06:06;;;;;;;;;;;;;;;-144.99;100.00;52643.78;5125535;28;20023;-68
2023/12/19 11:08:33;;;;;;;;;;;;;;;-144.99;100.00;52680.47;5127317;28;20165;-68
2023/12/19 11:11:04;;;;;;;;;;;;;;;-144.99;100.00;52619.31;5114043;27;20265;-69
2023/12/19 11:13:33;;;;;;;;;;;;;;;-144.99;100.00;52660.09;5125316;27;19993;-68
2023/12/19 11:16:04;;;;;;;;;;;;;;;-144.99;100.00;52631.53;5121899;27;19931;-67
2023/12/19 11:18:33;;;;;;;;;;;;;;;-144.99;100.00;52651.94;5121424;28;19927;-68
2023/12/19 11:21:01;;;;;;;;;;;;;;;-144.99;100.00;52647.84;5124217;28;19934;-67
2023/12/19 11:23:34;;;;;;;;;;;;;;;-144.99;100.00;52637.66;5124760;28;20010;-67
2023/12/19 11:26:03;;;;;;;;;;;;;;;-144.99;100.00;52619.31;5124889;28;20941;-67
2023/12/19 11:28:36;;;;;;;;;;;;;;;-144.99;100.00;52647.84;5122032;27;20330;-68
2023/12/19 11:31:04;;;;;;;;;;;;;;;-144.99;100.00;52651.94;5125767;27;19935;-67
2023/12/19 11:33:31;;;;;;;;;;;;;;;-144.99;100.00;52686.59;5125136;28;19937;-67
2023/12/19 11:36:10;;;;;;;;;;;;;;;-144.99;100.00;52611.16;5111250;28;19931;-67
2023/12/19 11:38:36;;;;;;;;;;;;;;;-144.99;100.00;52631.53;5124318;28;20027;-67
2023/12/19 11:41:03;;;;;;;;;;;;;;;-144.99;100.00;52664.16;5118842;27;20374;-67
2023/12/19 11:43:48;;;;;;;;;;;;;;;-144.99;100.00;52668.22;5120115;28;19938;-67
2023/12/19 11:46:19;;;;;;;;;;;;;;;-144.99;100.00;52676.38;5122281;28;20039;-67
2023/12/19 11:48:49;;;;;;;;;;;;;;;-144.99;100.00;52649.88;5126067;27;19992;-67
2023/12/19 11:51:35;;;;;;;;;;;;;;;-144.99;100.00;52621.34;5128693;27;20030;-67
2023/12/19 11:54:03;;;;;;;;;;;;;;;-144.99;100.00;52619.31;5128192;27;19931;-68
2023/12/19 11:56:31;;;;;;;;;;;;;;;-144.99;100.00;52600.97;5129322;27;19927;-68
2023/12/19 11:58:58;;;;;;;;;;;;;;;-144.99;100.00;52607.09;5126229;27;20251;-69
2023/12/19 12:01:25;;;;;;;;;;;;;;;-144.99;100.00;52605.03;5130834;27;20011;-69
2023/12/19 12:04:04;;;;;;;;;;;;;;;-144.99;100.00;52668.22;5130226;27;19930;-73
2023/12/19 12:06:30;;;;;;;;;;;;;;;-144.99;100.00;52629.50;5127799;27;19928;-69
2023/12/19 12:08:59;;;;;;;;;;;;;;;-144.99;100.00;52660.09;5124946;27;19987;-70
2023/12/19 12:11:26;;;;;;;;;;;;;;;-144.99;100.00;52688.63;5121413;27;19980;-69
2023/12/19 12:14:00;;;;;;;;;;;;;;;-144.99;100.00;52684.53;5115070;27;19927;-69
2023/12/19 12:16:36;;;;;;;;;;;;;;;-144.99;100.00;52631.53;5120898;27;20088;-69
2023/12/19 12:19:12;;;;;;;;;;;;;;;-144.99;100.00;52664.16;5122330;27;19927;-70